createdAt,value
2019-05-16T01:18:01.902Z,5.85
2019-05-16T04:04:41.616Z,8.68
2019-05-16T04:06:51.261Z,12.73
2019-05-16T04:09:36.881Z,6.70
2019-05-16T04:17:12.303Z,9.25
2019-05-16T04:20:33.969Z,9.43
2019-05-16T04:27:16.191Z,8.35
2019-05-16T04:49:32.832Z,6.05
2019-05-16T04:59:20.847Z,8.35
2019-05-16T05:01:51.161Z,6.42
2019-05-16T05:04:21.306Z,8.83
2019-05-16T05:09:51.156Z,8.48
2019-05-16T05:34:30.530Z,8.55
2019-05-16T05:37:02.139Z,7.00
2019-05-16T05:39:31.483Z,7.65
2019-05-16T05:42:02.149Z,6.78
2019-05-16T05:45:00.828Z,10.85
2019-05-16T05:47:34.383Z,5.10
2019-05-16T05:50:11.184Z,6.22
2019-05-16T05:53:06.333Z,8.15
2019-05-16T05:55:41.043Z,4.30
2019-05-16T05:58:12.966Z,6.47
2019-05-16T06:00:47.177Z,6.90
2019-05-16T06:03:23.221Z,5.40
2019-05-16T06:06:15.561Z,5.97
2019-05-16T06:09:26.228Z,4.60
2019-05-16T06:11:42.020Z,4.17
2019-05-16T06:14:14.688Z,4.60
2019-05-16T06:16:50.915Z,8.18
2019-05-16T06:19:21.096Z,4.45
2019-05-16T06:21:52.426Z,4.78
2019-05-16T06:24:21.920Z,6.85
2019-05-16T06:26:52.381Z,3.90
2019-05-16T06:29:21.850Z,6.10
2019-05-16T06:31:51.363Z,5.80
2019-05-16T06:34:21.127Z,6.37
2019-05-16T06:36:52.385Z,7.15
2019-05-16T06:39:21.917Z,4.70
2019-05-16T06:41:52.025Z,4.15
2019-05-16T06:44:21.742Z,4.40
2019-05-16T06:47:08.348Z,8.43
2019-05-16T06:49:22.637Z,5.55
2019-05-16T06:51:54.120Z,4.55
2019-05-16T06:54:23.471Z,7.75
2019-05-16T06:56:55.775Z,7.10
2019-05-16T06:59:25.489Z,5.15
2019-05-16T07:01:54.841Z,4.45
2019-05-16T07:04:24.414Z,4.97
2019-05-16T07:06:59.259Z,7.62
2019-05-16T07:09:30.288Z,5.97
2019-05-16T07:12:02.328Z,4.62
2019-05-16T07:14:32.204Z,5.65
2019-05-16T07:17:02.850Z,5.75
2019-05-16T07:19:36.683Z,5.03
2019-05-16T07:22:10.973Z,5.30
2019-05-16T07:24:39.838Z,7.25
2019-05-16T07:27:12.321Z,4.35
2019-05-16T07:29:40.536Z,3.45
2019-05-16T07:32:12.480Z,8.23
2019-05-16T07:34:43.382Z,4.00
2019-05-16T07:37:13.071Z,3.25
2019-05-16T07:39:42.478Z,3.95
2019-05-16T07:42:11.917Z,5.60
2019-05-16T07:44:41.284Z,4.15
2019-05-16T07:47:11.271Z,3.33
2019-05-16T07:49:40.794Z,7.85
2019-05-16T07:52:11.503Z,3.90
2019-05-16T07:54:40.938Z,4.53
2019-05-16T07:57:19.504Z,4.85
2019-05-16T07:59:42.892Z,3.62
2019-05-16T08:02:13.721Z,3.58
2019-05-16T08:04:43.030Z,3.67
2019-05-16T08:07:20.065Z,4.30
2019-05-16T08:09:50.457Z,3.95
2019-05-16T08:12:26.082Z,3.65
2019-05-16T08:14:54.680Z,3.95
2019-05-16T08:17:24.740Z,4.20
2019-05-16T08:19:54.965Z,4.50
2019-05-16T08:22:24.462Z,3.20
2019-05-16T08:24:54.178Z,3.35
2019-05-16T08:27:25.413Z,3.62
2019-05-16T08:29:55.234Z,3.17
2019-05-16T08:32:26.548Z,5.87
2019-05-16T08:35:01.147Z,3.20
2019-05-16T08:37:38.476Z,4.67
2019-05-16T08:40:02.117Z,5.25
2019-05-16T08:42:32.404Z,6.45
2019-05-16T08:45:04.130Z,10.32
2019-05-16T08:47:41.895Z,3.20
2019-05-16T08:50:14.211Z,3.67
2019-05-16T08:52:43.427Z,5.10
2019-05-16T08:55:13.983Z,4.03
2019-05-16T08:57:44.849Z,3.77
2019-05-16T09:00:15.386Z,3.35
2019-05-16T09:02:45.738Z,4.85
2019-05-16T09:05:15.483Z,3.75
2019-05-16T09:07:44.923Z,5.87
2019-05-16T09:10:51.640Z,5.17
2019-05-16T09:13:13.434Z,4.05
2019-05-16T09:15:42.986Z,5.40
2019-05-16T09:18:12.448Z,3.75
2019-05-16T09:20:42.943Z,4.37
2019-05-16T09:23:13.595Z,4.75
2019-05-16T09:25:43.002Z,4.55
2019-05-16T09:28:12.373Z,4.37
2019-05-16T09:30:47.315Z,7.85
2019-05-16T09:33:17.932Z,5.05
2019-05-16T09:35:47.926Z,5.03
2019-05-16T09:38:22.870Z,6.87
2019-05-16T09:40:48.844Z,3.22
2019-05-16T09:43:20.331Z,4.53
2019-05-16T09:45:57.322Z,7.22
2019-05-16T09:48:27.976Z,5.55
2019-05-16T09:50:57.626Z,4.70
2019-05-16T09:53:50.176Z,6.15
2019-05-16T09:59:17.898Z,5.25
2019-05-16T10:02:03.662Z,4.47
2019-05-16T10:04:57.941Z,3.62
2019-05-16T10:07:31.603Z,3.67
2019-05-16T10:10:06.518Z,3.40
2019-05-16T10:12:37.708Z,3.75
2019-05-16T10:15:09.408Z,3.55
2019-05-16T10:17:39.401Z,3.90
2019-05-16T10:20:11.434Z,5.60
2019-05-16T10:22:41.286Z,3.33
2019-05-16T10:25:12.497Z,3.85
2019-05-16T10:27:41.872Z,4.05
2019-05-16T10:30:11.841Z,3.08
2019-05-16T10:32:51.435Z,4.83
2019-05-16T10:35:29.142Z,3.87
2019-05-16T10:38:01.478Z,3.75
2019-05-16T10:40:31.946Z,5.50
2019-05-16T10:43:20.013Z,4.87
2019-05-16T10:45:49.501Z,4.05
2019-05-16T10:48:22.849Z,2.90
2019-05-16T10:50:52.799Z,3.58
2019-05-16T10:53:50.493Z,3.52
2019-05-16T10:55:54.059Z,6.67
2019-05-16T10:58:36.547Z,4.05
2019-05-16T11:01:15.655Z,3.70
2019-05-16T11:03:27.668Z,3.87
2019-05-16T11:06:05.581Z,5.83
2019-05-16T11:08:29.736Z,2.65
2019-05-16T11:10:59.209Z,4.10
2019-05-16T11:13:29.370Z,4.08
2019-05-16T11:15:59.664Z,4.17
2019-05-16T11:18:30.771Z,3.50
2019-05-16T11:21:00.215Z,7.47
2019-05-16T11:23:31.390Z,4.80
2019-05-16T11:26:00.863Z,3.92
2019-05-16T11:28:30.270Z,3.35
2019-05-16T11:31:03.585Z,4.37
2019-05-16T11:33:31.026Z,5.35
2019-05-16T11:36:00.548Z,4.67
2019-05-16T11:38:29.891Z,4.60
2019-05-16T11:40:59.529Z,5.33
2019-05-16T11:43:28.928Z,5.50
2019-05-16T11:46:00.974Z,5.42
2019-05-16T11:48:31.750Z,3.92
2019-05-16T11:51:01.271Z,3.67
2019-05-16T11:53:33.814Z,4.45
2019-05-16T11:56:03.373Z,3.40
2019-05-16T11:58:32.819Z,3.75
2019-05-16T12:01:07.297Z,6.53
2019-05-16T12:03:37.360Z,2.50
2019-05-16T12:06:10.584Z,3.40
2019-05-16T12:08:49.222Z,4.67
2019-05-16T12:11:48.349Z,4.53
2019-05-16T12:14:17.869Z,2.98
2019-05-16T12:16:49.172Z,5.05
2019-05-16T12:19:20.460Z,3.45
2019-05-16T12:21:52.280Z,5.45
2019-05-16T12:24:33.055Z,5.58
2019-05-16T12:27:12.173Z,3.80
2019-05-16T12:29:43.353Z,7.85
2019-05-16T12:32:12.803Z,4.87
2019-05-16T12:34:42.396Z,6.55
2019-05-16T12:37:15.362Z,4.47
2019-05-16T12:39:48.175Z,5.55
2019-05-16T12:42:18.128Z,5.80
2019-05-16T12:44:50.100Z,4.72
2019-05-16T12:47:19.596Z,4.45
2019-05-16T12:49:50.842Z,5.53
2019-05-16T12:52:22.055Z,6.45
2019-05-16T12:54:51.644Z,7.90
2019-05-16T12:57:30.183Z,7.15
2019-05-16T12:59:57.309Z,4.55
2019-05-16T13:02:27.511Z,9.13
2019-05-16T13:04:59.221Z,7.08
2019-05-16T13:07:33.831Z,6.85
2019-05-16T13:10:06.962Z,6.12
2019-05-16T13:12:37.855Z,6.58
2019-05-16T13:15:10.535Z,5.00
2019-05-16T13:17:43.936Z,3.98
2019-05-16T13:20:17.377Z,4.22
2019-05-16T13:22:50.144Z,7.42
2019-05-16T13:25:27.416Z,6.75
2019-05-16T13:27:59.534Z,5.22
2019-05-16T13:31:19.605Z,5.90
2019-05-16T13:33:57.323Z,5.47
2019-05-16T13:36:28.890Z,6.12
2019-05-16T13:38:59.938Z,6.25
2019-05-16T13:41:37.680Z,5.47
2019-05-16T13:44:18.471Z,6.72
2019-05-16T13:46:42.350Z,5.67
2019-05-16T13:49:11.938Z,6.15
2019-05-16T13:51:41.756Z,7.08
2019-05-16T13:54:20.799Z,6.12
2019-05-16T13:57:11.144Z,7.55
2019-05-16T14:06:49.106Z,9.15
2019-05-16T14:09:18.521Z,9.13
2019-05-16T14:11:48.086Z,7.60
2019-05-16T14:14:49.958Z,5.72
2019-05-16T14:17:21.600Z,8.73
2019-05-16T14:19:57.319Z,7.62
2019-05-16T14:22:37.160Z,7.22
2019-05-16T14:25:09.975Z,7.80
2019-05-16T14:27:49.151Z,11.95
2019-05-16T14:30:23.751Z,8.58
2019-05-16T14:33:25.030Z,8.30
2019-05-16T14:36:04.279Z,7.87
2019-05-16T14:38:34.098Z,13.05
2019-05-16T14:41:08.039Z,9.80
2019-05-16T14:53:07.392Z,9.38
2019-05-16T14:55:38.668Z,7.70
2019-05-16T15:03:59.273Z,7.60
2019-05-16T15:06:38.719Z,6.30
2019-05-16T15:09:17.917Z,8.03
2019-05-16T15:14:47.755Z,6.87
2019-05-16T15:35:14.759Z,9.13
2019-05-16T15:37:58.739Z,7.53
2019-05-16T15:40:30.472Z,7.65
2019-05-16T15:43:18.170Z,8.68
2019-05-16T15:46:08.420Z,8.68
2019-05-16T15:49:19.811Z,7.90
2019-05-16T15:51:56.440Z,7.95
2019-05-16T15:54:47.351Z,8.45
2019-05-16T15:57:18.541Z,9.60
2019-05-16T16:04:00.294Z,9.80
2019-05-16T16:06:43.161Z,10.45
2019-05-16T16:09:20.504Z,11.10
2019-05-16T16:12:14.126Z,8.50
2019-05-16T16:18:48.530Z,10.32
2019-05-16T16:24:08.091Z,9.23
2019-05-16T16:27:22.750Z,8.75
2019-05-16T16:29:52.049Z,8.48
2019-05-16T16:38:53.246Z,8.20
2019-05-16T16:41:42.206Z,9.10
2019-05-16T16:57:50.302Z,9.58
2019-05-16T17:07:10.631Z,7.78
2019-05-16T17:28:37.499Z,10.23
2019-05-16T17:31:12.258Z,6.25
2019-05-16T17:33:41.571Z,8.38
2019-05-16T17:36:26.475Z,9.28
2019-05-16T17:39:05.994Z,9.43
2019-05-16T17:41:36.843Z,9.03
2019-05-16T17:44:08.369Z,8.30
2019-05-16T17:46:40.979Z,7.37
2019-05-16T17:49:10.403Z,12.73
2019-05-16T17:51:47.240Z,8.05
2019-05-16T17:54:19.514Z,8.65
2019-05-16T17:56:49.214Z,8.25
2019-05-16T18:00:01.470Z,9.73
2019-05-16T18:02:30.924Z,7.67
2019-05-16T18:05:32.422Z,7.22
2019-05-16T18:08:07.449Z,6.08
2019-05-16T18:10:47.232Z,8.78
2019-05-16T18:13:17.007Z,8.93
2019-05-16T18:15:49.647Z,6.97
2019-05-16T18:18:20.525Z,8.08
2019-05-16T18:21:02.033Z,8.35
2019-05-16T18:23:47.236Z,8.43
2019-05-16T18:26:17.327Z,8.38
2019-05-16T18:28:50.638Z,8.73
2019-05-16T18:31:46.922Z,7.35
2019-05-16T18:34:16.862Z,13.53
2019-05-16T18:38:02.377Z,7.95
2019-05-16T18:40:32.810Z,7.28
2019-05-16T18:43:09.419Z,8.08
2019-05-16T18:45:52.930Z,8.98
2019-05-16T18:48:22.851Z,9.35
2019-05-16T18:50:54.176Z,12.88
2019-05-16T18:56:43.598Z,11.88
2019-05-16T18:59:32.401Z,7.58
2019-05-16T19:02:29.643Z,13.13
2019-05-16T19:05:01.050Z,9.13
2019-05-16T19:07:30.328Z,14.38
2019-05-16T19:10:00.315Z,9.45
2019-05-16T19:12:31.253Z,9.15
2019-05-16T19:15:00.678Z,9.40
2019-05-16T19:18:18.175Z,9.23
2019-05-16T19:20:52.047Z,12.85
2019-05-16T21:52:33.444Z,14.30
2019-05-16T21:55:07.135Z,14.60
2019-05-16T21:57:37.756Z,15.15
2019-05-16T22:00:16.904Z,14.90
2019-05-16T22:02:48.253Z,14.20
2019-05-16T22:05:19.982Z,14.55
2019-05-16T22:07:53.481Z,20.17
2019-05-16T22:10:26.596Z,13.93
2019-05-16T22:12:59.207Z,15.15
2019-05-16T22:15:32.281Z,17.30
2019-05-16T22:18:03.846Z,14.63
2019-05-16T22:20:37.869Z,17.17
2019-05-16T22:23:09.746Z,15.10
2019-05-16T22:25:39.318Z,17.90
2019-05-16T22:28:17.342Z,18.87
2019-05-16T22:30:49.131Z,18.60
2019-05-16T22:33:18.556Z,16.85
2019-05-16T22:36:12.332Z,16.77
2019-05-16T22:39:01.113Z,15.63
2019-05-16T22:41:55.780Z,15.43
2019-05-16T23:15:08.069Z,20.68
2019-05-16T23:17:37.672Z,16.20
2019-05-16T23:20:07.220Z,17.80
2019-05-16T23:22:58.293Z,18.32
2019-05-16T23:25:30.564Z,16.82
2019-05-16T23:28:10.388Z,18.10
2019-05-16T23:31:11.684Z,17.75
2019-05-16T23:33:47.174Z,17.73
2019-05-16T23:44:32.143Z,18.67
2019-05-16T23:47:01.595Z,21.85
2019-05-16T23:49:36.715Z,18.80
2019-05-16T23:52:07.573Z,18.17
2019-05-16T23:54:41.192Z,22.25
2019-05-16T23:59:56.746Z,19.23
